createdAt,value
2023-03-02T00:01:11.324Z,29.87
2023-03-02T00:03:41.035Z,29.90
2023-03-02T00:06:09.590Z,29.74
2023-03-02T00:08:39.039Z,30.17
2023-03-02T00:11:05.703Z,30.04
2023-03-02T00:13:52.365Z,30.25
2023-03-02T00:16:19.011Z,30.16
2023-03-02T00:18:45.638Z,30.28
2023-03-02T00:21:12.278Z,30.19
2023-03-02T00:23:38.885Z,30.26
2023-03-02T00:26:06.356Z,31.55
2023-03-02T00:28:33.813Z,31.27
2023-03-02T00:31:00.689Z,30.59
2023-03-02T00:33:29.406Z,31.40
2023-03-02T00:35:56.125Z,31.69
2023-03-02T00:38:22.793Z,31.04
2023-03-02T00:40:52.020Z,31.36
2023-03-02T00:43:19.378Z,30.49
2023-03-02T00:45:46.015Z,30.90
2023-03-02T00:48:12.658Z,31.11
2023-03-02T00:50:39.340Z,30.92
2023-03-02T00:53:05.973Z,31.39
2023-03-02T00:55:32.583Z,30.58
2023-03-02T00:57:59.230Z,30.97
2023-03-02T01:00:25.868Z,30.57
2023-03-02T01:02:52.746Z,30.90
2023-03-02T01:05:19.622Z,30.93
2023-03-02T01:07:46.270Z,29.97
2023-03-02T01:10:14.150Z,30.89
2023-03-02T01:12:40.806Z,31.06
2023-03-02T01:15:09.471Z,30.40
2023-03-02T01:17:36.534Z,30.67
2023-03-02T01:20:03.779Z,30.49
2023-03-02T01:22:30.433Z,31.05
2023-03-02T01:24:57.096Z,30.68
2023-03-02T01:27:23.733Z,30.46
2023-03-02T01:29:50.397Z,30.82
2023-03-02T01:32:17.097Z,30.74
2023-03-02T01:34:45.951Z,30.55
2023-03-02T01:37:12.817Z,29.58
2023-03-02T01:39:39.482Z,29.69
2023-03-02T01:42:06.170Z,29.74
2023-03-02T01:44:40.217Z,29.74
2023-03-02T01:47:32.274Z,30.20
2023-03-02T01:50:01.464Z,29.28
2023-03-02T01:52:33.450Z,29.87
2023-03-02T01:55:06.848Z,30.02
2023-03-02T01:57:38.922Z,29.23
2023-03-02T02:00:07.706Z,29.67
2023-03-02T02:02:36.479Z,29.61
2023-03-02T02:05:03.999Z,29.84
2023-03-02T02:07:31.477Z,31.05
2023-03-02T02:09:59.848Z,29.33
2023-03-02T02:12:26.495Z,29.22
2023-03-02T02:14:53.570Z,29.46
2023-03-02T02:17:20.637Z,29.09
2023-03-02T02:20:04.630Z,28.85
2023-03-02T02:22:52.560Z,29.40
2023-03-02T02:25:50.191Z,29.39
2023-03-02T02:28:29.384Z,29.32
2023-03-02T02:31:10.307Z,29.71
2023-03-02T02:33:40.621Z,29.31
2023-03-02T02:36:15.815Z,29.62
2023-03-02T02:38:48.442Z,29.88
2023-03-02T02:41:22.484Z,29.39
2023-03-02T02:43:50.194Z,29.18
2023-03-02T02:46:17.003Z,29.56
2023-03-02T02:48:43.794Z,29.18
2023-03-02T02:51:20.461Z,29.51
2023-03-02T02:53:55.868Z,29.39
2023-03-02T02:56:22.641Z,29.12
2023-03-02T02:58:54.715Z,28.83
2023-03-02T03:01:24.353Z,29.29
2023-03-02T03:04:02.854Z,29.31
2023-03-02T03:06:33.979Z,29.10
2023-03-02T03:09:01.120Z,28.97
2023-03-02T03:11:34.633Z,28.61
2023-03-02T03:14:08.846Z,28.70
2023-03-02T03:16:38.633Z,29.48
2023-03-02T03:19:27.390Z,29.68
2023-03-02T03:21:58.205Z,29.31
2023-03-02T03:24:26.641Z,29.45
2023-03-02T03:26:53.959Z,29.02
2023-03-02T03:29:23.426Z,29.06
2023-03-02T03:31:51.631Z,29.37
2023-03-02T03:34:18.550Z,28.97
2023-03-02T03:36:45.348Z,29.80
2023-03-02T03:39:12.812Z,29.11
2023-03-02T03:41:39.748Z,30.09
2023-03-02T03:44:08.284Z,29.77
2023-03-02T03:46:36.132Z,28.81
2023-03-02T03:49:04.022Z,29.28
2023-03-02T03:51:31.254Z,29.76
2023-03-02T03:53:58.198Z,30.23
2023-03-02T03:56:25.246Z,30.41
2023-03-02T03:58:52.018Z,29.75
2023-03-02T04:01:18.716Z,30.14
2023-03-02T04:03:45.458Z,29.56
2023-03-02T04:06:12.224Z,29.62
2023-03-02T04:08:40.309Z,29.83
2023-03-02T04:11:06.953Z,29.56
2023-03-02T04:13:33.620Z,30.44
2023-03-02T04:16:00.336Z,30.01
2023-03-02T04:18:27.010Z,29.53
2023-03-02T04:20:53.664Z,29.95
2023-03-02T04:23:20.301Z,29.32
2023-03-02T04:25:46.936Z,29.20
2023-03-02T04:28:17.540Z,29.35
2023-03-02T04:30:45.034Z,29.88
2023-03-02T04:33:12.182Z,29.27
2023-03-02T04:35:38.891Z,29.64
2023-03-02T04:38:05.588Z,29.61
2023-03-02T04:40:32.327Z,30.11
2023-03-02T04:42:58.981Z,30.19
2023-03-02T04:45:25.606Z,29.65
2023-03-02T04:47:52.221Z,30.11
2023-03-02T04:50:18.914Z,29.92
2023-03-02T04:52:45.692Z,30.11
2023-03-02T04:55:22.472Z,30.27
2023-03-02T04:57:49.768Z,30.31
2023-03-02T05:00:21.030Z,29.57
2023-03-02T05:02:48.189Z,30.30
2023-03-02T05:05:17.972Z,30.34
2023-03-02T05:07:45.125Z,30.47
2023-03-02T05:10:13.615Z,30.84
2023-03-02T05:12:40.711Z,30.48
2023-03-02T05:15:07.706Z,30.67
2023-03-02T05:17:34.329Z,31.32
2023-03-02T05:20:01.015Z,30.98
2023-03-02T05:22:27.671Z,30.74
2023-03-02T05:24:54.346Z,30.61
2023-03-02T05:27:20.967Z,30.83
2023-03-02T05:29:47.594Z,30.62
2023-03-02T05:32:14.278Z,30.94
2023-03-02T05:34:40.923Z,30.34
2023-03-02T05:37:07.602Z,30.14
2023-03-02T05:39:34.215Z,29.89
2023-03-02T05:42:01.378Z,29.95
2023-03-02T05:44:31.198Z,30.18
2023-03-02T05:46:58.182Z,30.37
2023-03-02T05:49:25.015Z,29.86
2023-03-02T05:51:52.009Z,30.32
2023-03-02T05:54:18.681Z,30.53
2023-03-02T05:56:45.652Z,30.23
2023-03-02T05:59:12.382Z,29.97
2023-03-02T06:01:39.133Z,29.85
2023-03-02T06:04:06.933Z,29.78
2023-03-02T06:06:34.306Z,30.17
2023-03-02T06:09:01.133Z,30.45
2023-03-02T06:11:29.427Z,28.98
2023-03-02T06:13:56.256Z,30.44
2023-03-02T06:16:23.039Z,30.82
2023-03-02T06:18:49.729Z,30.19
2023-03-02T06:21:16.809Z,30.41
2023-03-02T06:23:43.496Z,30.43
2023-03-02T06:26:11.642Z,30.27
2023-03-02T06:28:51.628Z,31.21
2023-03-02T06:31:19.160Z,30.92
2023-03-02T06:33:45.884Z,31.41
2023-03-02T06:36:12.944Z,30.45
2023-03-02T06:38:39.856Z,30.89
2023-03-02T06:41:06.513Z,30.98
2023-03-02T06:43:33.310Z,30.65
2023-03-02T06:46:00.028Z,30.40
2023-03-02T06:48:26.961Z,31.05
2023-03-02T06:50:53.808Z,30.94
2023-03-02T06:53:20.625Z,30.86
2023-03-02T06:55:47.936Z,31.50
2023-03-02T06:58:14.637Z,30.52
2023-03-02T07:00:41.675Z,30.31
2023-03-02T07:03:08.361Z,29.76
2023-03-02T07:05:35.037Z,30.67
2023-03-02T07:08:01.872Z,31.26
2023-03-02T07:10:28.797Z,31.16
2023-03-02T07:12:55.504Z,31.61
2023-03-02T07:15:22.407Z,30.57
2023-03-02T07:17:51.664Z,31.05
2023-03-02T07:20:19.146Z,30.92
2023-03-02T07:22:45.793Z,31.33
2023-03-02T07:25:13.839Z,30.61
2023-03-02T07:27:40.771Z,30.49
2023-03-02T07:30:08.689Z,31.34
2023-03-02T07:32:35.452Z,31.66
2023-03-02T07:35:02.213Z,30.83
2023-03-02T07:37:29.849Z,30.98
2023-03-02T07:39:57.993Z,30.67
2023-03-02T07:42:25.566Z,30.97
2023-03-02T07:44:53.584Z,31.12
2023-03-02T07:47:20.342Z,30.95
2023-03-02T07:49:47.294Z,31.23
2023-03-02T07:52:13.974Z,31.07
2023-03-02T07:54:40.597Z,30.66
2023-03-02T07:57:07.278Z,30.87
2023-03-02T07:59:33.934Z,30.86
2023-03-02T08:02:02.476Z,30.41
2023-03-02T08:04:29.121Z,30.64
2023-03-02T08:06:55.766Z,30.42
2023-03-02T08:09:22.463Z,30.26
2023-03-02T08:11:49.096Z,30.18
2023-03-02T08:14:15.745Z,29.98
2023-03-02T08:16:44.374Z,30.53
2023-03-02T08:19:11.029Z,29.96
2023-03-02T08:21:37.663Z,29.78
2023-03-02T08:24:04.977Z,30.80
2023-03-02T08:26:32.209Z,30.58
2023-03-02T08:28:59.576Z,29.65
2023-03-02T08:31:26.782Z,30.76
2023-03-02T08:33:53.557Z,30.34
2023-03-02T08:36:20.362Z,30.76
2023-03-02T08:38:48.913Z,30.20
2023-03-02T08:41:21.520Z,29.61
2023-03-02T08:43:48.940Z,30.29
2023-03-02T08:46:18.509Z,30.33
2023-03-02T08:48:45.589Z,30.52
2023-03-02T08:51:20.640Z,30.45
2023-03-02T08:53:49.833Z,30.95
2023-03-02T08:56:22.647Z,30.68
2023-03-02T08:58:51.425Z,30.83
2023-03-02T09:01:21.666Z,29.72
2023-03-02T09:03:48.806Z,30.86
2023-03-02T09:06:15.685Z,30.93
2023-03-02T09:08:43.146Z,31.10
2023-03-02T09:11:09.811Z,30.31
2023-03-02T09:13:36.667Z,31.31
2023-03-02T09:16:04.409Z,30.82
2023-03-02T09:18:34.471Z,31.64
2023-03-02T09:21:02.243Z,31.27
2023-03-02T09:23:29.469Z,31.50
2023-03-02T09:25:56.185Z,31.37
2023-03-02T09:28:23.554Z,31.57
2023-03-02T09:30:57.927Z,30.86
2023-03-02T09:33:25.109Z,31.21
2023-03-02T09:35:51.778Z,30.97
2023-03-02T09:38:19.042Z,31.21
2023-03-02T09:40:51.642Z,31.18
2023-03-02T09:43:32.340Z,31.00
2023-03-02T09:46:27.937Z,31.10
2023-03-02T09:49:32.060Z,30.85
2023-03-02T09:52:27.873Z,30.27
2023-03-02T09:54:56.027Z,30.33
2023-03-02T09:57:32.484Z,31.53
2023-03-02T10:00:19.602Z,31.48
2023-03-02T10:02:56.225Z,31.50
2023-03-02T10:05:31.213Z,31.08
2023-03-02T10:07:59.372Z,30.83
2023-03-02T10:11:03.771Z,30.91
2023-03-02T10:13:47.784Z,30.74
2023-03-02T10:16:31.227Z,30.98
2023-03-02T10:19:07.242Z,31.58
2023-03-02T10:21:41.406Z,31.82
2023-03-02T10:24:34.280Z,31.43
2023-03-02T10:27:23.989Z,30.61
2023-03-02T10:30:03.116Z,31.29
2023-03-02T10:32:38.185Z,31.39
2023-03-02T10:35:21.217Z,31.03
2023-03-02T10:37:59.327Z,30.49
2023-03-02T10:40:39.084Z,30.20
2023-03-02T10:43:11.654Z,30.62
2023-03-02T10:45:38.346Z,30.45
2023-03-02T10:48:08.914Z,30.19
2023-03-02T10:50:36.994Z,30.61
2023-03-02T10:53:07.203Z,30.70
2023-03-02T10:55:34.453Z,30.29
2023-03-02T10:58:22.773Z,30.52
2023-03-02T11:01:15.133Z,30.07
2023-03-02T11:03:43.349Z,30.24
2023-03-02T11:06:18.457Z,30.16
2023-03-02T11:08:45.262Z,30.66
2023-03-02T11:11:25.614Z,30.47
2023-03-02T11:13:52.414Z,30.09
2023-03-02T11:16:19.057Z,30.42
2023-03-02T11:18:54.570Z,30.61
2023-03-02T11:21:43.455Z,29.80
2023-03-02T11:24:10.575Z,31.38
2023-03-02T11:26:58.529Z,30.87
2023-03-02T11:29:44.726Z,30.57
2023-03-02T11:32:31.020Z,31.42
2023-03-02T11:35:09.330Z,31.32
2023-03-02T11:37:48.323Z,31.15
2023-03-02T11:40:43.047Z,31.24
2023-03-02T11:43:12.526Z,31.43
2023-03-02T11:46:04.983Z,31.20
2023-03-02T11:48:41.756Z,31.96
2023-03-02T11:51:14.667Z,31.21
2023-03-02T11:54:00.905Z,31.44
2023-03-02T11:56:31.716Z,31.76
2023-03-02T11:59:03.182Z,31.17
2023-03-02T12:01:31.039Z,31.94
2023-03-02T12:04:36.090Z,32.56
2023-03-02T12:07:17.997Z,32.15
2023-03-02T12:09:44.770Z,31.77
2023-03-02T12:12:26.330Z,31.92
2023-03-02T12:14:53.148Z,31.64
2023-03-02T12:17:22.125Z,31.62
2023-03-02T12:19:51.657Z,32.02
2023-03-02T12:22:30.780Z,31.60
2023-03-02T12:25:26.800Z,31.89
2023-03-02T12:27:55.324Z,32.29
2023-03-02T12:30:26.692Z,32.41
2023-03-02T12:33:18.872Z,32.23
2023-03-02T12:35:48.544Z,31.44
2023-03-02T12:38:21.063Z,33.15
2023-03-02T12:41:39.769Z,31.99
2023-03-02T12:44:52.347Z,32.54
2023-03-02T12:47:21.748Z,32.03
2023-03-02T12:49:56.739Z,33.05
2023-03-02T12:52:28.322Z,33.02
2023-03-02T12:55:01.289Z,32.65
2023-03-02T12:57:28.465Z,32.79
2023-03-02T12:59:57.845Z,32.31
2023-03-02T13:02:36.327Z,31.66
2023-03-02T13:05:06.961Z,32.37
2023-03-02T13:07:42.313Z,32.20
2023-03-02T13:10:40.731Z,31.91
2023-03-02T13:13:17.942Z,32.62
2023-03-02T13:15:53.221Z,33.50
2023-03-02T13:18:22.448Z,32.77
2023-03-02T13:20:54.267Z,33.17
2023-03-02T13:23:21.471Z,32.36
2023-03-02T13:25:51.702Z,32.81
2023-03-02T13:28:44.710Z,33.14
2023-03-02T13:31:22.169Z,32.68
2023-03-02T13:33:52.795Z,32.63
2023-03-02T13:36:23.664Z,33.11
2023-03-02T13:38:55.147Z,33.24
2023-03-02T13:41:30.848Z,32.46
2023-03-02T13:44:18.169Z,32.60
2023-03-02T13:46:44.834Z,33.42
2023-03-02T13:49:13.148Z,33.56
2023-03-02T13:51:44.077Z,32.81
2023-03-02T13:54:29.278Z,32.79
2023-03-02T13:57:00.178Z,33.63
2023-03-02T13:59:27.411Z,32.90
2023-03-02T14:01:54.268Z,32.73
2023-03-02T14:04:23.795Z,32.88
2023-03-02T14:06:52.728Z,33.63
2023-03-02T14:09:20.151Z,32.57
2023-03-02T14:11:53.774Z,32.69
2023-03-02T14:14:26.704Z,32.37
2023-03-02T14:16:53.699Z,32.95
2023-03-02T14:19:21.263Z,32.86
2023-03-02T14:21:48.203Z,32.06
2023-03-02T14:24:15.148Z,32.43
2023-03-02T14:26:48.717Z,32.44
2023-03-02T14:29:32.525Z,32.73
2023-03-02T14:32:02.399Z,32.81
2023-03-02T14:34:30.362Z,32.20
2023-03-02T14:37:00.106Z,32.39
2023-03-02T14:39:50.745Z,32.63
2023-03-02T14:42:20.723Z,32.44
2023-03-02T14:44:50.054Z,32.57
2023-03-02T14:47:17.637Z,32.79
2023-03-02T14:49:44.413Z,32.80
2023-03-02T14:52:35.663Z,32.74
2023-03-02T14:55:14.126Z,32.22
2023-03-02T14:57:40.957Z,32.81
2023-03-02T15:00:12.047Z,32.82
2023-03-02T15:02:38.812Z,32.81
2023-03-02T15:05:05.804Z,32.70
2023-03-02T15:07:32.524Z,32.74
2023-03-02T15:09:59.393Z,32.54
2023-03-02T15:12:26.624Z,32.46
2023-03-02T15:14:53.397Z,32.40
2023-03-02T15:17:20.081Z,32.35
2023-03-02T15:19:47.801Z,32.34
2023-03-02T15:22:14.459Z,31.87
2023-03-02T15:24:41.180Z,32.86
2023-03-02T15:27:08.295Z,32.05
2023-03-02T15:29:35.399Z,33.14
2023-03-02T15:32:02.289Z,31.81
2023-03-02T15:34:29.073Z,31.85
2023-03-02T15:36:55.768Z,32.08
2023-03-02T15:39:22.493Z,31.36
2023-03-02T15:41:49.243Z,32.06
2023-03-02T15:44:26.411Z,32.59
2023-03-02T15:46:55.237Z,31.56
2023-03-02T15:49:23.074Z,31.97
2023-03-02T15:51:53.373Z,31.95
2023-03-02T15:54:20.921Z,31.63
2023-03-02T15:56:48.229Z,32.45
2023-03-02T15:59:15.578Z,32.22
2023-03-02T16:01:42.235Z,32.06
2023-03-02T16:04:08.928Z,31.50
2023-03-02T16:06:35.668Z,32.08
2023-03-02T16:09:02.752Z,31.25
2023-03-02T16:11:29.792Z,32.61
2023-03-02T16:13:56.597Z,32.34
2023-03-02T16:16:23.341Z,33.25
2023-03-02T16:18:55.588Z,32.88
2023-03-02T16:21:23.023Z,32.01
2023-03-02T16:23:51.152Z,31.14
2023-03-02T16:26:21.872Z,30.96
2023-03-02T16:28:51.040Z,32.06
2023-03-02T16:31:19.808Z,31.52
2023-03-02T16:33:47.750Z,32.35
2023-03-02T16:36:14.781Z,31.96
2023-03-02T16:38:41.524Z,32.85
2023-03-02T16:41:20.034Z,32.03
2023-03-02T16:43:50.734Z,31.73
2023-03-02T16:46:19.445Z,32.99
2023-03-02T16:48:47.761Z,32.29
2023-03-02T16:51:18.268Z,31.90
2023-03-02T16:53:45.424Z,31.88
2023-03-02T16:56:21.090Z,31.64
2023-03-02T16:58:47.790Z,31.79
2023-03-02T17:01:20.643Z,31.82
2023-03-02T17:03:48.805Z,32.52
2023-03-02T17:06:23.006Z,33.10
2023-03-02T17:08:51.373Z,32.24
2023-03-02T17:11:19.430Z,31.67
2023-03-02T17:13:46.579Z,31.38
2023-03-02T17:16:13.660Z,31.09
2023-03-02T17:18:40.417Z,31.59
2023-03-02T17:21:07.085Z,32.15
2023-03-02T17:23:33.834Z,32.28
2023-03-02T17:26:00.576Z,31.76
2023-03-02T17:28:29.326Z,30.83
2023-03-02T17:30:56.776Z,31.34
2023-03-02T17:33:23.525Z,31.76
2023-03-02T17:35:50.692Z,31.69
2023-03-02T17:38:17.780Z,32.21
2023-03-02T17:40:44.501Z,32.08
2023-03-02T17:43:12.433Z,35.81
2023-03-02T17:45:41.281Z,37.21
2023-03-02T17:48:07.971Z,33.61
2023-03-02T17:50:34.680Z,33.07
2023-03-02T17:53:01.947Z,36.16
2023-03-02T17:55:29.200Z,38.04
2023-03-02T17:57:56.011Z,36.26
2023-03-02T18:00:24.046Z,35.85
2023-03-02T18:02:53.711Z,35.36
2023-03-02T18:05:21.080Z,35.23
2023-03-02T18:07:47.827Z,35.80
2023-03-02T18:10:15.121Z,35.88
2023-03-02T18:12:45.579Z,35.62
2023-03-02T18:15:13.420Z,36.76
2023-03-02T18:17:40.414Z,38.00
2023-03-02T18:20:07.658Z,38.06
2023-03-02T18:22:34.815Z,38.39
2023-03-02T18:25:01.575Z,36.74
2023-03-02T18:27:28.275Z,39.61
2023-03-02T18:29:55.029Z,45.72
2023-03-02T18:32:21.837Z,37.36
2023-03-02T18:34:48.683Z,39.14
2023-03-02T18:37:15.612Z,37.44
2023-03-02T18:39:42.245Z,37.60
2023-03-02T18:42:10.528Z,36.20
2023-03-02T18:44:41.297Z,36.59
2023-03-02T18:47:09.993Z,36.56
2023-03-02T18:49:36.690Z,37.07
2023-03-02T18:52:03.401Z,38.07
2023-03-02T18:54:30.147Z,39.19
2023-03-02T18:56:56.820Z,38.73
2023-03-02T18:59:23.465Z,38.01
2023-03-02T19:01:50.185Z,37.97
2023-03-02T19:04:16.880Z,37.32
2023-03-02T19:06:43.771Z,37.39
2023-03-02T19:09:11.270Z,34.20
2023-03-02T19:11:37.876Z,33.84
2023-03-02T19:14:04.773Z,31.45
2023-03-02T19:16:31.969Z,31.86
2023-03-02T19:18:58.624Z,31.85
2023-03-02T19:21:25.343Z,32.06
2023-03-02T19:23:51.952Z,33.20
2023-03-02T19:26:18.607Z,33.64
2023-03-02T19:28:45.238Z,34.26
2023-03-02T19:31:12.476Z,33.28
2023-03-02T19:33:40.661Z,33.42
2023-03-02T19:36:08.290Z,32.62
2023-03-02T19:38:34.980Z,32.56
2023-03-02T19:41:01.698Z,33.79
2023-03-02T19:43:28.633Z,35.12
2023-03-02T19:45:57.092Z,37.39
2023-03-02T19:48:24.014Z,34.24
2023-03-02T19:50:50.629Z,33.62
2023-03-02T19:53:17.245Z,33.55
2023-03-02T19:55:44.864Z,33.37
2023-03-02T19:58:11.957Z,37.10
2023-03-02T20:00:38.582Z,37.13
2023-03-02T20:03:05.729Z,37.42
2023-03-02T20:05:32.398Z,34.62
2023-03-02T20:07:59.055Z,34.30
2023-03-02T20:10:34.078Z,35.81
2023-03-02T20:13:01.446Z,35.16
2023-03-02T20:15:31.006Z,34.41
2023-03-02T20:17:58.782Z,34.52
2023-03-02T20:20:26.677Z,34.98
2023-03-02T20:22:53.745Z,34.69
2023-03-02T20:25:20.959Z,34.72
2023-03-02T20:27:49.633Z,35.28
2023-03-02T20:30:27.610Z,34.30
2023-03-02T20:32:56.330Z,34.88
2023-03-02T20:35:24.630Z,33.90
2023-03-02T20:37:52.316Z,34.44
2023-03-02T20:40:19.137Z,33.98
2023-03-02T20:42:45.758Z,34.01
2023-03-02T20:45:13.742Z,33.56
2023-03-02T20:47:42.259Z,33.86
2023-03-02T20:50:15.928Z,33.96
2023-03-02T20:52:42.634Z,33.73
2023-03-02T20:55:11.033Z,34.18
2023-03-02T20:57:37.873Z,34.90
2023-03-02T21:00:08.189Z,35.92
2023-03-02T21:02:34.902Z,33.61
2023-03-02T21:05:04.610Z,34.09
2023-03-02T21:07:31.256Z,34.47
2023-03-02T21:09:57.950Z,35.09
2023-03-02T21:12:24.666Z,34.53
2023-03-02T21:14:51.348Z,35.25
2023-03-02T21:17:17.983Z,35.68
2023-03-02T21:19:44.682Z,35.23
2023-03-02T21:22:11.342Z,35.35
2023-03-02T21:24:38.069Z,35.07
2023-03-02T21:27:04.698Z,37.42
2023-03-02T21:29:31.297Z,38.35
2023-03-02T21:31:58.017Z,36.25
2023-03-02T21:34:24.709Z,36.95
2023-03-02T21:36:51.729Z,36.79
2023-03-02T21:39:19.673Z,36.74
2023-03-02T21:41:46.295Z,36.49
2023-03-02T21:44:13.308Z,36.49
2023-03-02T21:46:40.726Z,36.74
2023-03-02T21:49:07.628Z,35.90
2023-03-02T21:51:34.597Z,36.20
2023-03-02T21:54:02.035Z,36.37
2023-03-02T21:56:28.815Z,36.58
2023-03-02T21:58:57.459Z,36.20
2023-03-02T22:01:25.566Z,36.48
2023-03-02T22:03:53.305Z,36.92
2023-03-02T22:06:23.516Z,37.27
2023-03-02T22:08:51.258Z,38.08
2023-03-02T22:11:23.348Z,38.24
2023-03-02T22:13:52.853Z,38.74
2023-03-02T22:16:35.256Z,37.88
2023-03-02T22:19:01.985Z,38.29
2023-03-02T22:21:36.121Z,38.75
2023-03-02T22:24:05.453Z,38.46
2023-03-02T22:26:33.802Z,37.47
2023-03-02T22:29:48.190Z,38.75
2023-03-02T22:32:21.412Z,38.11
2023-03-02T22:34:53.811Z,38.43
2023-03-02T22:37:29.465Z,37.79
2023-03-02T22:40:12.838Z,37.64
2023-03-02T22:42:39.456Z,37.78
2023-03-02T22:45:13.390Z,38.15
2023-03-02T22:47:41.839Z,39.24
2023-03-02T22:50:30.103Z,37.67
2023-03-02T22:53:00.854Z,39.07
2023-03-02T22:55:43.574Z,38.77
2023-03-02T22:58:37.731Z,38.98
2023-03-02T23:01:25.246Z,38.66
2023-03-02T23:03:57.050Z,39.12
2023-03-02T23:06:32.684Z,42.44
2023-03-02T23:09:02.037Z,43.57
2023-03-02T23:11:35.981Z,46.86
2023-03-02T23:14:12.996Z,53.19
2023-03-02T23:16:39.709Z,51.10
2023-03-02T23:19:06.380Z,50.62
2023-03-02T23:21:44.297Z,47.35
2023-03-02T23:24:10.998Z,44.50
2023-03-02T23:26:38.018Z,44.08
2023-03-02T23:29:06.304Z,44.99
2023-03-02T23:31:33.077Z,45.96
2023-03-02T23:33:59.873Z,45.45
2023-03-02T23:36:26.579Z,46.98
2023-03-02T23:38:53.556Z,48.76
2023-03-02T23:41:20.344Z,49.81
2023-03-02T23:43:47.249Z,47.88
2023-03-02T23:46:16.730Z,48.08
2023-03-02T23:48:43.555Z,50.45
2023-03-02T23:51:13.135Z,49.73
2023-03-02T23:53:39.830Z,49.08
2023-03-02T23:56:06.735Z,51.89
2023-03-02T23:58:33.354Z,52.00
